sensor_id;sensor_type;location;lat;lon;timestamp;P1;durP1;ratioP1;P2;durP2;ratioP2
32876;SDS011;19226;51.600;8.034;2023-01-28T00:00:18;4.60;;;4.20;;
32876;SDS011;19226;51.600;8.034;2023-01-28T00:02:51;6.28;;;4.65;;
32876;SDS011;19226;51.600;8.034;2023-01-28T00:09:07;4.80;;;4.32;;
32876;SDS011;19226;51.600;8.034;2023-01-28T00:16:45;5.00;;;4.60;;
32876;SDS011;19226;51.600;8.034;2023-01-28T00:21:59;5.90;;;4.35;;
32876;SDS011;19226;51.600;8.034;2023-01-28T00:24:27;6.63;;;5.32;;
32876;SDS011;19226;51.600;8.034;2023-01-28T00:26:53;4.93;;;4.10;;
32876;SDS011;19226;51.600;8.034;2023-01-28T00:29:27;5.32;;;4.10;;
32876;SDS011;19226;51.600;8.034;2023-01-28T00:31:55;4.90;;;4.45;;
32876;SDS011;19226;51.600;8.034;2023-01-28T00:34:23;10.27;;;4.40;;
32876;SDS011;19226;51.600;8.034;2023-01-28T00:40:19;6.75;;;4.18;;
32876;SDS011;19226;51.600;8.034;2023-01-28T00:42:45;4.90;;;4.50;;
32876;SDS011;19226;51.600;8.034;2023-01-28T00:45:12;8.07;;;4.30;;
32876;SDS011;19226;51.600;8.034;2023-01-28T00:50:26;4.85;;;4.45;;
32876;SDS011;19226;51.600;8.034;2023-01-28T00:56:17;5.55;;;4.60;;
32876;SDS011;19226;51.600;8.034;2023-01-28T00:58:45;4.72;;;4.32;;
32876;SDS011;19226;51.600;8.034;2023-01-28T01:01:19;5.53;;;4.65;;
32876;SDS011;19226;51.600;8.034;2023-01-28T01:06:32;4.97;;;4.55;;
32876;SDS011;19226;51.600;8.034;2023-01-28T01:09:04;6.32;;;4.60;;
32876;SDS011;19226;51.600;8.034;2023-01-28T01:11:32;4.65;;;4.25;;
32876;SDS011;19226;51.600;8.034;2023-01-28T01:16:30;9.43;;;5.40;;
32876;SDS011;19226;51.600;8.034;2023-01-28T01:21:46;5.00;;;4.57;;
32876;SDS011;19226;51.600;8.034;2023-01-28T01:31:11;5.97;;;5.38;;
32876;SDS011;19226;51.600;8.034;2023-01-28T01:33:55;6.32;;;4.82;;
32876;SDS011;19226;51.600;8.034;2023-01-28T01:36:22;5.70;;;5.20;;
32876;SDS011;19226;51.600;8.034;2023-01-28T01:38:53;5.35;;;4.85;;
32876;SDS011;19226;51.600;8.034;2023-01-28T01:41:21;5.25;;;4.80;;
32876;SDS011;19226;51.600;8.034;2023-01-28T01:50:34;5.55;;;5.05;;
32876;SDS011;19226;51.600;8.034;2023-01-28T01:53:06;6.22;;;5.20;;
32876;SDS011;19226;51.600;8.034;2023-01-28T01:55:42;10.20;;;5.15;;
32876;SDS011;19226;51.600;8.034;2023-01-28T02:01:38;5.70;;;5.20;;
32876;SDS011;19226;51.600;8.034;2023-01-28T02:04:22;6.97;;;5.85;;
32876;SDS011;19226;51.600;8.034;2023-01-28T02:07:08;4.88;;;4.47;;
32876;SDS011;19226;51.600;8.034;2023-01-28T02:09:39;4.60;;;4.18;;
32876;SDS011;19226;51.600;8.034;2023-01-28T02:14:56;6.60;;;4.45;;
32876;SDS011;19226;51.600;8.034;2023-01-28T02:17:28;5.72;;;3.88;;
32876;SDS011;19226;51.600;8.034;2023-01-28T02:19:58;4.35;;;3.95;;
32876;SDS011;19226;51.600;8.034;2023-01-28T02:22:31;6.50;;;5.00;;
32876;SDS011;19226;51.600;8.034;2023-01-28T02:28:31;6.72;;;5.80;;
32876;SDS011;19226;51.600;8.034;2023-01-28T02:36:27;7.15;;;6.20;;
32876;SDS011;19226;51.600;8.034;2023-01-28T02:39:33;15.45;;;5.75;;
32876;SDS011;19226;51.600;8.034;2023-01-28T02:48:17;7.05;;;5.88;;
32876;SDS011;19226;51.600;8.034;2023-01-28T02:50:57;11.05;;;7.13;;
32876;SDS011;19226;51.600;8.034;2023-01-28T02:53:35;8.75;;;7.03;;
32876;SDS011;19226;51.600;8.034;2023-01-28T02:56:15;8.80;;;6.78;;
32876;SDS011;19226;51.600;8.034;2023-01-28T02:59:27;10.75;;;7.38;;
32876;SDS011;19226;51.600;8.034;2023-01-28T03:02:14;12.20;;;7.63;;
32876;SDS011;19226;51.600;8.034;2023-01-28T03:05:06;11.52;;;7.80;;
32876;SDS011;19226;51.600;8.034;2023-01-28T03:07:38;9.07;;;7.45;;
32876;SDS011;19226;51.600;8.034;2023-01-28T03:10:24;9.82;;;7.93;;
32876;SDS011;19226;51.600;8.034;2023-01-28T03:16:23;8.80;;;7.43;;
32876;SDS011;19226;51.600;8.034;2023-01-28T03:19:10;10.25;;;7.78;;
32876;SDS011;19226;51.600;8.034;2023-01-28T03:21:56;12.32;;;7.22;;
32876;SDS011;19226;51.600;8.034;2023-01-28T03:24:43;8.90;;;7.10;;
32876;SDS011;19226;51.600;8.034;2023-01-28T03:30:39;9.63;;;6.90;;
32876;SDS011;19226;51.600;8.034;2023-01-28T03:33:44;12.23;;;6.75;;
32876;SDS011;19226;51.600;8.034;2023-01-28T03:36:31;12.65;;;6.93;;
32876;SDS011;19226;51.600;8.034;2023-01-28T03:39:55;11.85;;;6.47;;
32876;SDS011;19226;51.600;8.034;2023-01-28T03:42:28;9.23;;;6.70;;
32876;SDS011;19226;51.600;8.034;2023-01-28T03:45:15;7.10;;;6.38;;
32876;SDS011;19226;51.600;8.034;2023-01-28T03:47:41;6.35;;;5.72;;
32876;SDS011;19226;51.600;8.034;2023-01-28T03:53:01;8.02;;;6.97;;
32876;SDS011;19226;51.600;8.034;2023-01-28T03:55:46;6.55;;;5.95;;
32876;SDS011;19226;51.600;8.034;2023-01-28T03:58:15;8.77;;;6.95;;
32876;SDS011;19226;51.600;8.034;2023-01-28T04:00:43;7.72;;;6.82;;
32876;SDS011;19226;51.600;8.034;2023-01-28T04:03:12;10.75;;;7.22;;
32876;SDS011;19226;51.600;8.034;2023-01-28T04:09:20;7.45;;;6.40;;
32876;SDS011;19226;51.600;8.034;2023-01-28T04:11:59;7.38;;;6.45;;
32876;SDS011;19226;51.600;8.034;2023-01-28T04:14:33;6.93;;;6.22;;
32876;SDS011;19226;51.600;8.034;2023-01-28T04:17:07;10.85;;;6.65;;
32876;SDS011;19226;51.600;8.034;2023-01-28T04:19:36;13.90;;;8.38;;
32876;SDS011;19226;51.600;8.034;2023-01-28T04:22:07;8.25;;;6.85;;
32876;SDS011;19226;51.600;8.034;2023-01-28T04:24:54;9.98;;;6.90;;
32876;SDS011;19226;51.600;8.034;2023-01-28T04:31:10;14.13;;;7.43;;
32876;SDS011;19226;51.600;8.034;2023-01-28T04:34:14;7.65;;;6.85;;
32876;SDS011;19226;51.600;8.034;2023-01-28T04:36:50;8.13;;;6.80;;
32876;SDS011;19226;51.600;8.034;2023-01-28T04:39:37;7.55;;;6.00;;
32876;SDS011;19226;51.600;8.034;2023-01-28T04:42:32;7.57;;;6.72;;
32876;SDS011;19226;51.600;8.034;2023-01-28T04:45:16;12.63;;;6.78;;
32876;SDS011;19226;51.600;8.034;2023-01-28T04:48:03;9.85;;;6.55;;
32876;SDS011;19226;51.600;8.034;2023-01-28T04:50:51;9.45;;;6.13;;
32876;SDS011;19226;51.600;8.034;2023-01-28T04:53:38;6.90;;;6.30;;
32876;SDS011;19226;51.600;8.034;2023-01-28T04:56:15;8.80;;;6.20;;
32876;SDS011;19226;51.600;8.034;2023-01-28T04:58:41;6.97;;;6.28;;
32876;SDS011;19226;51.600;8.034;2023-01-28T05:03:59;7.60;;;6.30;;
32876;SDS011;19226;51.600;8.034;2023-01-28T05:06:32;8.68;;;6.07;;
32876;SDS011;19226;51.600;8.034;2023-01-28T05:09:08;6.68;;;6.05;;
32876;SDS011;19226;51.600;8.034;2023-01-28T05:11:36;8.68;;;6.25;;
32876;SDS011;19226;51.600;8.034;2023-01-28T05:14:03;7.60;;;6.80;;
32876;SDS011;19226;51.600;8.034;2023-01-28T05:19:20;8.32;;;6.50;;
32876;SDS011;19226;51.600;8.034;2023-01-28T05:22:16;7.15;;;5.70;;
32876;SDS011;19226;51.600;8.034;2023-01-28T05:24:47;8.20;;;6.22;;
32876;SDS011;19226;51.600;8.034;2023-01-28T05:27:13;8.10;;;6.78;;
32876;SDS011;19226;51.600;8.034;2023-01-28T05:29:41;9.85;;;7.90;;
32876;SDS011;19226;51.600;8.034;2023-01-28T05:32:07;10.25;;;6.50;;
32876;SDS011;19226;51.600;8.034;2023-01-28T05:34:34;8.85;;;6.97;;
32876;SDS011;19226;51.600;8.034;2023-01-28T05:40:12;7.10;;;6.40;;
32876;SDS011;19226;51.600;8.034;2023-01-28T05:42:39;7.07;;;6.47;;
32876;SDS011;19226;51.600;8.034;2023-01-28T05:45:35;8.30;;;6.40;;
32876;SDS011;19226;51.600;8.034;2023-01-28T05:48:16;7.47;;;6.78;;
32876;SDS011;19226;51.600;8.034;2023-01-28T05:50:48;8.93;;;6.85;;
32876;SDS011;19226;51.600;8.034;2023-01-28T05:53:48;9.23;;;6.57;;
32876;SDS011;19226;51.600;8.034;2023-01-28T05:56:14;13.93;;;6.90;;
32876;SDS011;19226;51.600;8.034;2023-01-28T05:58:40;8.02;;;6.65;;
32876;SDS011;19226;51.600;8.034;2023-01-28T06:01:08;7.82;;;6.72;;
32876;SDS011;19226;51.600;8.034;2023-01-28T06:03:42;7.68;;;6.07;;
32876;SDS011;19226;51.600;8.034;2023-01-28T06:09:54;11.48;;;6.53;;
32876;SDS011;19226;51.600;8.034;2023-01-28T06:12:21;9.30;;;6.63;;
32876;SDS011;19226;51.600;8.034;2023-01-28T06:17:51;11.75;;;6.50;;
32876;SDS011;19226;51.600;8.034;2023-01-28T06:20:27;6.05;;;5.55;;
32876;SDS011;19226;51.600;8.034;2023-01-28T06:22:55;7.40;;;6.15;;
32876;SDS011;19226;51.600;8.034;2023-01-28T06:25:24;8.07;;;7.10;;
32876;SDS011;19226;51.600;8.034;2023-01-28T06:27:53;7.85;;;6.40;;
32876;SDS011;19226;51.600;8.034;2023-01-28T06:33:23;10.88;;;7.10;;
32876;SDS011;19226;51.600;8.034;2023-01-28T06:38:36;8.82;;;6.43;;
32876;SDS011;19226;51.600;8.034;2023-01-28T06:41:02;7.38;;;6.38;;
32876;SDS011;19226;51.600;8.034;2023-01-28T06:46:16;6.95;;;6.25;;
32876;SDS011;19226;51.600;8.034;2023-01-28T06:48:42;6.65;;;5.93;;
32876;SDS011;19226;51.600;8.034;2023-01-28T06:54:01;9.07;;;6.53;;
32876;SDS011;19226;51.600;8.034;2023-01-28T06:59:12;6.55;;;5.95;;
32876;SDS011;19226;51.600;8.034;2023-01-28T07:04:44;7.93;;;6.07;;
32876;SDS011;19226;51.600;8.034;2023-01-28T07:10:17;10.02;;;6.10;;
32876;SDS011;19226;51.600;8.034;2023-01-28T07:12:43;8.07;;;6.55;;
32876;SDS011;19226;51.600;8.034;2023-01-28T07:15:28;10.50;;;7.18;;
32876;SDS011;19226;51.600;8.034;2023-01-28T07:17:54;8.98;;;7.18;;
32876;SDS011;19226;51.600;8.034;2023-01-28T07:20:20;7.68;;;6.07;;
32876;SDS011;19226;51.600;8.034;2023-01-28T07:22:47;13.10;;;6.50;;
32876;SDS011;19226;51.600;8.034;2023-01-28T07:25:13;8.43;;;6.65;;
32876;SDS011;19226;51.600;8.034;2023-01-28T07:27:50;11.20;;;6.70;;
32876;SDS011;19226;51.600;8.034;2023-01-28T07:30:18;10.20;;;7.30;;
32876;SDS011;19226;51.600;8.034;2023-01-28T07:32:45;7.65;;;6.57;;
32876;SDS011;19226;51.600;8.034;2023-01-28T07:38:20;9.43;;;6.85;;
32876;SDS011;19226;51.600;8.034;2023-01-28T07:40:51;7.20;;;6.57;;
32876;SDS011;19226;51.600;8.034;2023-01-28T07:43:18;9.13;;;6.40;;
32876;SDS011;19226;51.600;8.034;2023-01-28T07:45:48;12.02;;;6.90;;
32876;SDS011;19226;51.600;8.034;2023-01-28T07:48:24;10.85;;;6.70;;
32876;SDS011;19226;51.600;8.034;2023-01-28T07:50:51;11.02;;;7.95;;
32876;SDS011;19226;51.600;8.034;2023-01-28T07:53:23;13.35;;;7.25;;
32876;SDS011;19226;51.600;8.034;2023-01-28T07:55:50;8.82;;;7.25;;
32876;SDS011;19226;51.600;8.034;2023-01-28T07:58:17;8.65;;;7.15;;
32876;SDS011;19226;51.600;8.034;2023-01-28T08:00:43;13.73;;;7.35;;
32876;SDS011;19226;51.600;8.034;2023-01-28T08:03:13;8.20;;;6.70;;
32876;SDS011;19226;51.600;8.034;2023-01-28T08:08:13;9.10;;;6.95;;
32876;SDS011;19226;51.600;8.034;2023-01-28T08:10:40;8.77;;;7.30;;
32876;SDS011;19226;51.600;8.034;2023-01-28T08:16:16;9.63;;;8.07;;
32876;SDS011;19226;51.600;8.034;2023-01-28T08:21:29;8.45;;;7.25;;
32876;SDS011;19226;51.600;8.034;2023-01-28T08:23:58;11.10;;;7.22;;
32876;SDS011;19226;51.600;8.034;2023-01-28T08:26:24;9.85;;;7.68;;
32876;SDS011;19226;51.600;8.034;2023-01-28T08:28:50;9.65;;;7.60;;
32876;SDS011;19226;51.600;8.034;2023-01-28T08:31:18;8.77;;;7.22;;
32876;SDS011;19226;51.600;8.034;2023-01-28T08:33:44;9.07;;;6.95;;
32876;SDS011;19226;51.600;8.034;2023-01-28T08:38:56;10.23;;;7.15;;
32876;SDS011;19226;51.600;8.034;2023-01-28T08:41:22;8.25;;;7.25;;
32876;SDS011;19226;51.600;8.034;2023-01-28T08:46:36;7.88;;;7.03;;
32876;SDS011;19226;51.600;8.034;2023-01-28T08:49:02;9.15;;;7.28;;
32876;SDS011;19226;51.600;8.034;2023-01-28T08:51:30;8.18;;;7.38;;
32876;SDS011;19226;51.600;8.034;2023-01-28T08:53:56;7.30;;;6.50;;
32876;SDS011;19226;51.600;8.034;2023-01-28T08:56:30;8.80;;;6.82;;
32876;SDS011;19226;51.600;8.034;2023-01-28T08:58:56;10.00;;;7.25;;
32876;SDS011;19226;51.600;8.034;2023-01-28T09:04:08;10.02;;;7.55;;
32876;SDS011;19226;51.600;8.034;2023-01-28T09:06:42;12.68;;;7.43;;
32876;SDS011;19226;51.600;8.034;2023-01-28T09:12:09;9.20;;;6.00;;
32876;SDS011;19226;51.600;8.034;2023-01-28T09:14:35;8.82;;;7.10;;
32876;SDS011;19226;51.600;8.034;2023-01-28T09:17:04;10.20;;;7.40;;
32876;SDS011;19226;51.600;8.034;2023-01-28T09:19:30;9.97;;;7.20;;
32876;SDS011;19226;51.600;8.034;2023-01-28T09:21:56;9.77;;;6.85;;
32876;SDS011;19226;51.600;8.034;2023-01-28T09:24:29;11.65;;;6.57;;
32876;SDS011;19226;51.600;8.034;2023-01-28T09:26:55;8.35;;;6.68;;
32876;SDS011;19226;51.600;8.034;2023-01-28T09:32:27;8.43;;;6.15;;
32876;SDS011;19226;51.600;8.034;2023-01-28T09:34:56;8.88;;;5.82;;
32876;SDS011;19226;51.600;8.034;2023-01-28T09:37:22;7.45;;;6.00;;
32876;SDS011;19226;51.600;8.034;2023-01-28T09:39:48;5.93;;;5.43;;
32876;SDS011;19226;51.600;8.034;2023-01-28T09:45:21;6.95;;;4.50;;
32876;SDS011;19226;51.600;8.034;2023-01-28T09:48:04;6.30;;;4.53;;
32876;SDS011;19226;51.600;8.034;2023-01-28T09:50:39;6.63;;;5.53;;
32876;SDS011;19226;51.600;8.034;2023-01-28T09:53:12;5.60;;;4.90;;
32876;SDS011;19226;51.600;8.034;2023-01-28T09:58:37;9.35;;;5.28;;
32876;SDS011;19226;51.600;8.034;2023-01-28T10:09:34;5.68;;;5.18;;
32876;SDS011;19226;51.600;8.034;2023-01-28T10:17:40;7.22;;;5.75;;
32876;SDS011;19226;51.600;8.034;2023-01-28T10:25:36;5.65;;;5.03;;
32876;SDS011;19226;51.600;8.034;2023-01-28T10:30:55;7.28;;;5.40;;
32876;SDS011;19226;51.600;8.034;2023-01-28T10:33:36;6.80;;;6.20;;
32876;SDS011;19226;51.600;8.034;2023-01-28T10:36:04;6.53;;;5.53;;
32876;SDS011;19226;51.600;8.034;2023-01-28T10:38:45;5.47;;;5.07;;
32876;SDS011;19226;51.600;8.034;2023-01-28T10:41:12;5.93;;;5.20;;
32876;SDS011;19226;51.600;8.034;2023-01-28T10:43:48;5.45;;;4.97;;
32876;SDS011;19226;51.600;8.034;2023-01-28T10:49:03;6.55;;;5.40;;
32876;SDS011;19226;51.600;8.034;2023-01-28T10:51:35;11.35;;;5.47;;
32876;SDS011;19226;51.600;8.034;2023-01-28T10:54:16;6.10;;;5.50;;
32876;SDS011;19226;51.600;8.034;2023-01-28T10:56:54;6.07;;;5.50;;
32876;SDS011;19226;51.600;8.034;2023-01-28T10:59:28;8.13;;;5.57;;
32876;SDS011;19226;51.600;8.034;2023-01-28T11:02:02;5.40;;;4.32;;
32876;SDS011;19226;51.600;8.034;2023-01-28T11:04:47;7.28;;;5.95;;
32876;SDS011;19226;51.600;8.034;2023-01-28T11:07:25;8.73;;;5.80;;
32876;SDS011;19226;51.600;8.034;2023-01-28T11:09:52;5.82;;;5.32;;
32876;SDS011;19226;51.600;8.034;2023-01-28T11:12:20;7.13;;;6.25;;
32876;SDS011;19226;51.600;8.034;2023-01-28T11:14:59;6.63;;;5.60;;
32876;SDS011;19226;51.600;8.034;2023-01-28T11:18:20;10.85;;;5.72;;
32876;SDS011;19226;51.600;8.034;2023-01-28T11:21:20;7.45;;;5.68;;
32876;SDS011;19226;51.600;8.034;2023-01-28T11:26:29;10.27;;;6.13;;
32876;SDS011;19226;51.600;8.034;2023-01-28T11:28:58;9.85;;;6.07;;
32876;SDS011;19226;51.600;8.034;2023-01-28T11:34:15;7.25;;;5.65;;
32876;SDS011;19226;51.600;8.034;2023-01-28T11:36:50;6.22;;;5.63;;
32876;SDS011;19226;51.600;8.034;2023-01-28T11:39:26;6.72;;;5.70;;
32876;SDS011;19226;51.600;8.034;2023-01-28T11:42:17;6.10;;;5.57;;
32876;SDS011;19226;51.600;8.034;2023-01-28T11:44:47;6.00;;;5.28;;
32876;SDS011;19226;51.600;8.034;2023-01-28T11:47:37;7.65;;;5.68;;
32876;SDS011;19226;51.600;8.034;2023-01-28T11:50:32;7.63;;;6.50;;
32876;SDS011;19226;51.600;8.034;2023-01-28T11:56:19;6.82;;;6.28;;
32876;SDS011;19226;51.600;8.034;2023-01-28T12:01:55;6.63;;;5.93;;
32876;SDS011;19226;51.600;8.034;2023-01-28T12:10:14;8.05;;;6.35;;
32876;SDS011;19226;51.600;8.034;2023-01-28T12:27:46;6.72;;;6.07;;
32876;SDS011;19226;51.600;8.034;2023-01-28T12:35:48;8.38;;;6.43;;
32876;SDS011;19226;51.600;8.034;2023-01-28T12:41:30;9.73;;;6.90;;
32876;SDS011;19226;51.600;8.034;2023-01-28T12:44:11;13.57;;;6.70;;
32876;SDS011;19226;51.600;8.034;2023-01-28T12:47:02;8.10;;;7.28;;
32876;SDS011;19226;51.600;8.034;2023-01-28T12:49:51;11.07;;;7.93;;
32876;SDS011;19226;51.600;8.034;2023-01-28T12:52:23;9.00;;;7.53;;
32876;SDS011;19226;51.600;8.034;2023-01-28T12:58:00;18.70;;;7.75;;
32876;SDS011;19226;51.600;8.034;2023-01-28T13:00:32;11.15;;;8.75;;
32876;SDS011;19226;51.600;8.034;2023-01-28T13:03:47;12.82;;;8.13;;
32876;SDS011;19226;51.600;8.034;2023-01-28T13:06:14;8.85;;;7.95;;
32876;SDS011;19226;51.600;8.034;2023-01-28T13:12:20;8.98;;;8.00;;
32876;SDS011;19226;51.600;8.034;2023-01-28T13:14:48;7.90;;;7.10;;
32876;SDS011;19226;51.600;8.034;2023-01-28T13:17:24;8.27;;;7.45;;
32876;SDS011;19226;51.600;8.034;2023-01-28T13:19:55;7.82;;;6.75;;
32876;SDS011;19226;51.600;8.034;2023-01-28T13:22:30;8.60;;;6.78;;
32876;SDS011;19226;51.600;8.034;2023-01-28T13:25:17;7.82;;;6.85;;
32876;SDS011;19226;51.600;8.034;2023-01-28T13:28:01;10.55;;;7.28;;
32876;SDS011;19226;51.600;8.034;2023-01-28T13:30:31;27.35;;;12.05;;
32876;SDS011;19226;51.600;8.034;2023-01-28T13:33:03;28.27;;;15.23;;
32876;SDS011;19226;51.600;8.034;2023-01-28T13:38:18;12.00;;;7.32;;
32876;SDS011;19226;51.600;8.034;2023-01-28T13:40:59;6.85;;;6.15;;
32876;SDS011;19226;51.600;8.034;2023-01-28T13:46:12;9.73;;;6.97;;
32876;SDS011;19226;51.600;8.034;2023-01-28T13:48:53;7.55;;;6.88;;
32876;SDS011;19226;51.600;8.034;2023-01-28T13:51:24;7.07;;;6.38;;
32876;SDS011;19226;51.600;8.034;2023-01-28T13:57:23;7.22;;;6.53;;
32876;SDS011;19226;51.600;8.034;2023-01-28T14:02:35;8.50;;;6.97;;
32876;SDS011;19226;51.600;8.034;2023-01-28T14:05:32;6.82;;;6.07;;
32876;SDS011;19226;51.600;8.034;2023-01-28T14:14:19;7.40;;;6.63;;
32876;SDS011;19226;51.600;8.034;2023-01-28T14:19:48;10.13;;;6.85;;
32876;SDS011;19226;51.600;8.034;2023-01-28T14:22:18;6.88;;;6.22;;
32876;SDS011;19226;51.600;8.034;2023-01-28T14:24:45;9.57;;;6.82;;
32876;SDS011;19226;51.600;8.034;2023-01-28T14:33:08;8.10;;;6.72;;
32876;SDS011;19226;51.600;8.034;2023-01-28T14:35:42;7.63;;;6.22;;
32876;SDS011;19226;51.600;8.034;2023-01-28T14:38:19;7.30;;;6.40;;
32876;SDS011;19226;51.600;8.034;2023-01-28T14:46:53;7.28;;;5.85;;
32876;SDS011;19226;51.600;8.034;2023-01-28T14:58:08;9.98;;;6.35;;
32876;SDS011;19226;51.600;8.034;2023-01-28T15:01:23;11.50;;;7.50;;
32876;SDS011;19226;51.600;8.034;2023-01-28T15:03:51;8.57;;;7.13;;
32876;SDS011;19226;51.600;8.034;2023-01-28T15:09:24;10.35;;;7.43;;
32876;SDS011;19226;51.600;8.034;2023-01-28T15:11:51;7.07;;;5.93;;
32876;SDS011;19226;51.600;8.034;2023-01-28T15:17:13;9.60;;;6.72;;
32876;SDS011;19226;51.600;8.034;2023-01-28T15:19:55;8.52;;;6.78;;
32876;SDS011;19226;51.600;8.034;2023-01-28T15:24:53;8.60;;;6.95;;
32876;SDS011;19226;51.600;8.034;2023-01-28T15:27:26;6.75;;;6.15;;
32876;SDS011;19226;51.600;8.034;2023-01-28T15:29:56;8.52;;;6.68;;
32876;SDS011;19226;51.600;8.034;2023-01-28T15:32:33;9.80;;;6.68;;
32876;SDS011;19226;51.600;8.034;2023-01-28T15:34:59;7.45;;;6.57;;
32876;SDS011;19226;51.600;8.034;2023-01-28T15:37:26;16.23;;;8.30;;
32876;SDS011;19226;51.600;8.034;2023-01-28T15:40:00;13.48;;;7.50;;
32876;SDS011;19226;51.600;8.034;2023-01-28T15:42:30;9.57;;;7.50;;
32876;SDS011;19226;51.600;8.034;2023-01-28T15:47:43;9.35;;;7.57;;
32876;SDS011;19226;51.600;8.034;2023-01-28T15:50:17;9.18;;;6.75;;
32876;SDS011;19226;51.600;8.034;2023-01-28T15:52:46;9.18;;;7.05;;
32876;SDS011;19226;51.600;8.034;2023-01-28T15:55:29;10.50;;;6.50;;
32876;SDS011;19226;51.600;8.034;2023-01-28T15:58:24;9.68;;;6.43;;
32876;SDS011;19226;51.600;8.034;2023-01-28T16:01:02;10.07;;;7.60;;
32876;SDS011;19226;51.600;8.034;2023-01-28T16:03:38;11.32;;;7.72;;
32876;SDS011;19226;51.600;8.034;2023-01-28T16:06:17;11.65;;;8.63;;
32876;SDS011;19226;51.600;8.034;2023-01-28T16:08:53;11.70;;;9.68;;
32876;SDS011;19226;51.600;8.034;2023-01-28T16:16:52;24.10;;;14.35;;
32876;SDS011;19226;51.600;8.034;2023-01-28T16:27:47;15.85;;;12.02;;
32876;SDS011;19226;51.600;8.034;2023-01-28T16:30:14;22.05;;;9.48;;
32876;SDS011;19226;51.600;8.034;2023-01-28T16:35:45;15.63;;;10.00;;
32876;SDS011;19226;51.600;8.034;2023-01-28T16:38:29;11.73;;;9.13;;
32876;SDS011;19226;51.600;8.034;2023-01-28T16:41:03;15.23;;;8.48;;
32876;SDS011;19226;51.600;8.034;2023-01-28T16:43:29;14.23;;;8.73;;
32876;SDS011;19226;51.600;8.034;2023-01-28T16:46:02;10.13;;;8.30;;
32876;SDS011;19226;51.600;8.034;2023-01-28T16:51:16;12.60;;;8.80;;
32876;SDS011;19226;51.600;8.034;2023-01-28T16:53:47;14.73;;;9.50;;
32876;SDS011;19226;51.600;8.034;2023-01-28T16:56:15;17.80;;;12.00;;
32876;SDS011;19226;51.600;8.034;2023-01-28T16:58:45;22.55;;;14.23;;
32876;SDS011;19226;51.600;8.034;2023-01-28T17:01:12;28.20;;;16.40;;
32876;SDS011;19226;51.600;8.034;2023-01-28T17:03:59;25.52;;;14.50;;
32876;SDS011;19226;51.600;8.034;2023-01-28T17:06:25;24.10;;;13.40;;
32876;SDS011;19226;51.600;8.034;2023-01-28T17:11:41;18.10;;;10.63;;
32876;SDS011;19226;51.600;8.034;2023-01-28T17:14:08;17.33;;;12.27;;
32876;SDS011;19226;51.600;8.034;2023-01-28T17:21:49;17.83;;;12.90;;
32876;SDS011;19226;51.600;8.034;2023-01-28T17:24:33;20.67;;;13.68;;
32876;SDS011;19226;51.600;8.034;2023-01-28T17:29:47;16.30;;;12.40;;
32876;SDS011;19226;51.600;8.034;2023-01-28T17:32:13;19.70;;;13.63;;
32876;SDS011;19226;51.600;8.034;2023-01-28T17:37:45;17.52;;;12.15;;
32876;SDS011;19226;51.600;8.034;2023-01-28T17:40:12;20.50;;;12.35;;
32876;SDS011;19226;51.600;8.034;2023-01-28T17:46:26;27.67;;;14.38;;
32876;SDS011;19226;51.600;8.034;2023-01-28T17:48:52;17.27;;;13.18;;
32876;SDS011;19226;51.600;8.034;2023-01-28T17:51:19;22.52;;;12.88;;
32876;SDS011;19226;51.600;8.034;2023-01-28T17:53:51;24.30;;;13.80;;
32876;SDS011;19226;51.600;8.034;2023-01-28T17:56:18;18.73;;;13.88;;
32876;SDS011;19226;51.600;8.034;2023-01-28T17:58:49;17.88;;;14.10;;
32876;SDS011;19226;51.600;8.034;2023-01-28T18:01:20;18.55;;;13.80;;
32876;SDS011;19226;51.600;8.034;2023-01-28T18:06:35;21.38;;;13.75;;
32876;SDS011;19226;51.600;8.034;2023-01-28T18:09:07;22.70;;;14.35;;
32876;SDS011;19226;51.600;8.034;2023-01-28T18:11:34;18.92;;;12.57;;
32876;SDS011;19226;51.600;8.034;2023-01-28T18:16:46;17.98;;;12.93;;
32876;SDS011;19226;51.600;8.034;2023-01-28T18:19:12;20.20;;;12.15;;
32876;SDS011;19226;51.600;8.034;2023-01-28T18:21:39;18.27;;;11.85;;
32876;SDS011;19226;51.600;8.034;2023-01-28T18:24:06;22.27;;;11.80;;
32876;SDS011;19226;51.600;8.034;2023-01-28T18:26:32;21.75;;;14.00;;
32876;SDS011;19226;51.600;8.034;2023-01-28T18:29:00;23.00;;;14.23;;
32876;SDS011;19226;51.600;8.034;2023-01-28T18:31:27;27.40;;;14.20;;
32876;SDS011;19226;51.600;8.034;2023-01-28T18:33:53;23.65;;;14.55;;
32876;SDS011;19226;51.600;8.034;2023-01-28T18:36:20;19.10;;;14.38;;
32876;SDS011;19226;51.600;8.034;2023-01-28T18:38:46;20.10;;;14.23;;
32876;SDS011;19226;51.600;8.034;2023-01-28T18:41:17;23.67;;;15.35;;
32876;SDS011;19226;51.600;8.034;2023-01-28T18:43:43;18.90;;;14.10;;
32876;SDS011;19226;51.600;8.034;2023-01-28T18:46:11;21.52;;;13.95;;
32876;SDS011;19226;51.600;8.034;2023-01-28T18:51:42;28.17;;;17.35;;
32876;SDS011;19226;51.600;8.034;2023-01-28T18:59:39;31.92;;;17.38;;
32876;SDS011;19226;51.600;8.034;2023-01-28T19:02:15;34.97;;;17.08;;
32876;SDS011;19226;51.600;8.034;2023-01-28T19:04:41;29.15;;;17.48;;
32876;SDS011;19226;51.600;8.034;2023-01-28T19:07:07;31.48;;;17.98;;
32876;SDS011;19226;51.600;8.034;2023-01-28T19:09:53;36.75;;;23.17;;
32876;SDS011;19226;51.600;8.034;2023-01-28T19:15:17;31.25;;;18.67;;
32876;SDS011;19226;51.600;8.034;2023-01-28T19:17:43;35.78;;;19.55;;
32876;SDS011;19226;51.600;8.034;2023-01-28T19:23:33;34.97;;;19.10;;
32876;SDS011;19226;51.600;8.034;2023-01-28T19:26:03;31.35;;;18.92;;
32876;SDS011;19226;51.600;8.034;2023-01-28T19:28:31;38.38;;;18.73;;
32876;SDS011;19226;51.600;8.034;2023-01-28T19:31:02;38.63;;;19.00;;
32876;SDS011;19226;51.600;8.034;2023-01-28T19:33:28;34.70;;;18.40;;
32876;SDS011;19226;51.600;8.034;2023-01-28T19:35:56;29.80;;;17.92;;
32876;SDS011;19226;51.600;8.034;2023-01-28T19:38:25;29.85;;;18.23;;
32876;SDS011;19226;51.600;8.034;2023-01-28T19:40:54;29.65;;;18.05;;
32876;SDS011;19226;51.600;8.034;2023-01-28T19:43:27;27.45;;;16.50;;
32876;SDS011;19226;51.600;8.034;2023-01-28T19:48:40;31.25;;;17.95;;
32876;SDS011;19226;51.600;8.034;2023-01-28T19:51:07;32.20;;;18.20;;
32876;SDS011;19226;51.600;8.034;2023-01-28T19:56:22;36.50;;;19.08;;
32876;SDS011;19226;51.600;8.034;2023-01-28T20:01:40;81.03;;;36.63;;
32876;SDS011;19226;51.600;8.034;2023-01-28T20:04:06;51.17;;;25.85;;
32876;SDS011;19226;51.600;8.034;2023-01-28T20:06:52;45.00;;;22.90;;
32876;SDS011;19226;51.600;8.034;2023-01-28T20:09:18;43.85;;;24.13;;
32876;SDS011;19226;51.600;8.034;2023-01-28T20:11:45;82.57;;;39.17;;
32876;SDS011;19226;51.600;8.034;2023-01-28T20:16:57;90.05;;;39.72;;
32876;SDS011;19226;51.600;8.034;2023-01-28T20:23:11;56.13;;;27.67;;
32876;SDS011;19226;51.600;8.034;2023-01-28T20:25:51;46.65;;;23.58;;
32876;SDS011;19226;51.600;8.034;2023-01-28T20:28:22;40.17;;;22.90;;
32876;SDS011;19226;51.600;8.034;2023-01-28T20:30:50;39.58;;;21.55;;
32876;SDS011;19226;51.600;8.034;2023-01-28T20:33:17;37.28;;;22.77;;
32876;SDS011;19226;51.600;8.034;2023-01-28T20:35:45;39.05;;;21.30;;
32876;SDS011;19226;51.600;8.034;2023-01-28T20:38:11;36.40;;;20.05;;
32876;SDS011;19226;51.600;8.034;2023-01-28T20:40:40;35.65;;;19.45;;
32876;SDS011;19226;51.600;8.034;2023-01-28T20:43:07;34.85;;;19.83;;
32876;SDS011;19226;51.600;8.034;2023-01-28T20:48:58;36.22;;;20.35;;
32876;SDS011;19226;51.600;8.034;2023-01-28T20:54:35;40.80;;;21.02;;
32876;SDS011;19226;51.600;8.034;2023-01-28T20:57:11;37.92;;;21.17;;
32876;SDS011;19226;51.600;8.034;2023-01-28T20:59:37;38.03;;;21.10;;
32876;SDS011;19226;51.600;8.034;2023-01-28T21:02:03;37.83;;;21.30;;
32876;SDS011;19226;51.600;8.034;2023-01-28T21:04:36;39.40;;;21.63;;